Time;durP1;ratioP1;P1;durP2;ratioP2;P2;SDS_P1;SDS_P2;PMS_P1;PMS_P2;Temp;Humidity;BMP_temperature;BMP_pressure;BME280_temperature;BME280_humidity;BME280_pressure;Samples;Min_cycle;Max_cycle;Signal;HPM_P1;HPM_P2
2022/08/30 00:01:20;;;;;;;11.40;5.18;;;;;;;15.44;100.00;164602.16;4992121;28;20092;-67
2022/08/30 00:03:46;;;;;;;6.90;4.70;;;;;;;15.40;100.00;164592.69;4990192;28;20041;-64
2022/08/30 00:06:14;;;;;;;12.85;5.43;;;;;;;15.37;100.00;164584.59;4991813;28;20030;-67
2022/08/30 00:08:41;;;;;;;11.90;6.13;;;;;;;15.36;100.00;164581.88;4992015;28;20042;-67
2022/08/30 00:11:11;;;;;;;5.78;5.10;;;;;;;15.35;100.00;164579.16;4989929;28;20049;-67
2022/08/30 00:13:38;;;;;;;5.28;4.78;;;;;;;15.35;100.00;164579.16;4991557;28;20517;-68
2022/08/30 00:16:05;;;;;;;7.45;5.00;;;;;;;15.32;100.00;164572.41;4990546;28;20046;-67
2022/08/30 00:18:31;;;;;;;7.22;5.55;;;;;;;15.31;100.00;164568.31;4991092;28;20030;-67
2022/08/30 00:20:56;;;;;;;8.48;5.85;;;;;;;15.29;100.00;164562.94;4990398;28;20134;-67
2022/08/30 00:23:22;;;;;;;5.68;4.90;;;;;;;15.29;100.00;164562.94;4991646;28;20034;-67
2022/08/30 00:25:48;;;;;;;11.85;6.53;;;;;;;15.28;100.00;164560.22;4989772;28;20465;-67
2022/08/30 00:28:15;;;;;;;6.70;5.65;;;;;;;15.27;100.00;164557.50;4991821;28;20465;-67
2022/08/30 00:30:41;;;;;;;14.85;6.30;;;;;;;15.26;100.00;164554.78;4989775;28;20046;-67
2022/08/30 00:33:07;;;;;;;6.10;5.40;;;;;;;15.25;100.00;164553.47;4990783;28;20062;-66
2022/08/30 00:35:33;;;;;;;9.50;5.25;;;;;;;15.23;100.00;164549.38;4989925;28;20050;-66
2022/08/30 00:37:58;;;;;;;7.28;5.20;;;;;;;15.23;100.00;164549.38;4991851;28;20022;-66
2022/08/30 00:40:25;;;;;;;5.57;5.07;;;;;;;15.21;100.00;164542.59;4989895;28;20039;-66
2022/08/30 00:42:51;;;;;;;7.10;5.53;;;;;;;15.22;100.00;164545.31;4990893;28;20058;-66
2022/08/30 00:45:23;;;;;;;6.07;5.63;;;;;;;15.20;100.00;164541.28;4990131;28;20196;-66
2022/08/30 00:47:49;;;;;;;8.25;5.95;;;;;;;15.17;100.00;164533.13;4991235;28;20101;-66
2022/08/30 00:50:19;;;;;;;5.40;4.90;;;;;;;15.14;100.00;164525.03;4990072;28;20042;-66
2022/08/30 00:52:48;;;;;;;8.13;6.20;;;;;;;15.15;100.00;164527.72;4991322;28;20034;-66
2022/08/30 00:55:16;;;;;;;9.15;6.28;;;;;;;15.14;100.00;164525.03;4989325;28;20058;-65
2022/08/30 00:57:44;;;;;;;6.82;5.90;;;;;;;15.09;100.00;164510.13;4991177;28;20034;-66
2022/08/30 01:00:10;;;;;;;5.90;5.40;;;;;;;15.04;100.00;164497.94;4990227;28;20065;-66
2022/08/30 01:02:36;;;;;;;8.48;6.15;;;;;;;15.03;100.00;164496.63;4990953;28;20026;-69
2022/08/30 01:05:04;;;;;;;6.78;6.15;;;;;;;15.02;100.00;164492.53;4989775;28;20649;-68
2022/08/30 01:07:30;;;;;;;11.98;6.38;;;;;;;14.99;100.00;164484.44;4990975;28;20088;-69
2022/08/30 01:09:55;;;;;;;8.23;5.68;;;;;;;14.97;100.00;164479.00;4991813;28;20057;-69
2022/08/30 01:12:22;;;;;;;6.22;5.72;;;;;;;14.95;100.00;164473.56;4995304;28;20026;-69
2022/08/30 01:14:47;;;;;;;7.53;6.80;;;;;;;14.93;100.00;164468.19;4991939;28;20740;-69
2022/08/30 01:17:14;;;;;;;9.00;7.47;;;;;;;14.90;100.00;164461.38;4994442;28;20067;-69
2022/08/30 01:19:57;;;;;;;7.00;6.45;;;;;;;14.88;100.00;164456.00;4993548;28;20042;-68
2022/08/30 01:22:49;;;;;;;7.25;6.43;;;;;;;14.86;100.00;164450.59;4994970;28;20030;-69
2022/08/30 01:25:18;;;;;;;6.50;5.90;;;;;;;14.83;100.00;164443.84;4993053;28;20062;-70
2022/08/30 01:27:50;;;;;;;6.85;6.18;;;;;;;14.80;100.00;164435.69;4994690;28;20019;-69
2022/08/30 01:30:16;;;;;;;8.00;6.75;;;;;;;14.77;100.00;164427.59;4992846;28;20051;-70
2022/08/30 01:32:46;;;;;;;8.07;7.22;;;;;;;14.77;100.00;164427.59;4994015;28;20038;-69
2022/08/30 01:35:14;;;;;;;8.05;7.25;;;;;;;14.73;100.00;164416.75;4993436;28;20046;-69
2022/08/30 01:37:43;;;;;;;9.25;7.97;;;;;;;14.72;100.00;164414.03;4994498;28;20052;-68
2022/08/30 01:40:09;;;;;;;14.48;7.53;;;;;;;14.72;100.00;164414.03;4992877;28;20058;-69
2022/08/30 01:42:35;;;;;;;6.60;6.10;;;;;;;14.72;100.00;164414.03;4993377;28;20034;-69
2022/08/30 01:45:00;;;;;;;7.90;7.20;;;;;;;-146.58;100.00;69501.63;4992967;28;20038;-69
2022/08/30 01:47:26;;;;;;;7.20;6.53;;;;;;;-146.58;100.00;69501.63;4993803;28;20056;-69
2022/08/30 01:49:52;;;;;;;7.53;6.82;;;;;;;-146.58;100.00;69501.63;4992964;28;20038;-69
2022/08/30 01:52:19;;;;;;;8.50;7.20;;;;;;;-146.58;100.00;69501.63;4994217;28;20028;-69
2022/08/30 01:54:45;;;;;;;9.40;7.07;;;;;;;-146.58;100.00;69501.63;4992141;28;20038;-68
2022/08/30 01:57:14;;;;;;;8.23;7.53;;;;;;;-146.58;100.00;69501.63;4994248;28;20101;-68
2022/08/30 01:59:42;;;;;;;7.85;6.57;;;;;;;14.72;100.00;131088.16;4992528;28;20034;-68
2022/08/30 02:02:08;;;;;;;7.63;6.95;;;;;;;14.72;100.00;164414.03;4994168;28;20037;-69
2022/08/30 02:04:35;;;;;;;10.18;7.90;;;;;;;14.72;100.00;164414.03;4992416;28;20117;-68
2022/08/30 02:07:01;;;;;;;15.65;8.00;;;;;;;-146.58;100.00;69501.63;4994027;28;20497;-69
2022/08/30 02:09:27;;;;;;;38.03;7.63;;;;;;;-146.58;100.00;69501.63;4992108;28;20038;-68
2022/08/30 02:11:53;;;;;;;9.75;6.70;;;;;;;-146.58;100.00;69501.63;4994348;28;20030;-69
2022/08/30 02:14:18;;;;;;;9.00;8.02;;;;;;;-146.58;100.00;69501.63;4992524;28;20038;-69
2022/08/30 02:16:43;;;;;;;7.25;6.55;;;;;;;-146.58;100.00;69501.63;4993352;28;20386;-69
2022/08/30 02:19:09;;;;;;;11.07;7.57;;;;;;;-146.58;100.00;69501.63;4992475;28;20097;-69
2022/08/30 02:21:34;;;;;;;7.88;7.18;;;;;;;-146.58;100.00;69501.63;4993469;28;20097;-69
2022/08/30 02:23:59;;;;;;;8.38;6.07;;;;;;;-146.58;100.00;69501.63;4991780;28;20026;-69
2022/08/30 02:26:25;;;;;;;6.57;5.88;;;;;;;-146.58;100.00;69501.63;4993819;28;20037;-69
2022/08/30 02:28:52;;;;;;;7.07;5.88;;;;;;;-146.58;100.00;69501.63;4991789;28;20544;-68
2022/08/30 02:31:19;;;;;;;6.88;6.28;;;;;;;-146.58;100.00;69501.63;4993425;28;20113;-69
2022/08/30 02:33:44;;;;;;;8.50;6.97;;;;;;;-146.58;100.00;69501.63;4991706;28;20109;-68
2022/08/30 02:36:10;;;;;;;7.80;6.45;;;;;;;-146.58;100.00;69501.63;4993532;28;20367;-68
2022/08/30 02:38:35;;;;;;;6.95;6.43;;;;;;;-146.58;100.00;69501.63;4992896;28;20030;-68
2022/08/30 02:41:01;;;;;;;10.57;6.68;;;;;;;-146.58;100.00;69501.63;4991713;28;20034;-68
2022/08/30 02:43:26;;;;;;;6.18;5.45;;;;;;;-146.58;100.00;69501.63;4993216;28;20041;-69
2022/08/30 02:45:52;;;;;;;7.22;6.50;;;;;;;-146.58;100.00;69501.63;4991372;28;20053;-64
2022/08/30 02:48:17;;;;;;;5.72;5.28;;;;;;;-146.58;100.00;69501.63;4993333;28;20019;-67
2022/08/30 02:50:45;;;;;;;6.15;5.60;;;;;;;-146.58;100.00;69501.63;4991440;28;20411;-66
2022/08/30 02:53:11;;;;;;;7.78;5.97;;;;;;;-146.58;100.00;90354.41;4992761;28;20037;-66
2022/08/30 02:55:36;;;;;;;6.45;5.82;;;;;;;14.17;100.00;69501.63;4991395;28;20398;-66
2022/08/30 02:58:02;;;;;;;6.15;5.65;;;;;;;14.09;100.00;164248.94;4992751;28;20046;-66
2022/08/30 03:00:27;;;;;;;8.02;6.32;;;;;;;14.04;100.00;164235.38;4991211;28;20042;-66
2022/08/30 03:02:53;;;;;;;7.57;6.30;;;;;;;-146.58;100.00;69501.63;4993122;28;20390;-66
2022/08/30 03:05:19;;;;;;;8.35;6.32;;;;;;;-146.58;100.00;69501.63;4991320;28;20038;-66
2022/08/30 03:07:47;;;;;;;6.30;5.80;;;;;;;-146.58;100.00;69501.63;4992571;28;20033;-66
2022/08/30 03:10:14;;;;;;;7.85;6.30;;;;;;;-146.58;100.00;69501.63;4991476;28;20081;-65
2022/08/30 03:12:40;;;;;;;8.13;6.80;;;;;;;-146.58;100.00;69501.63;4992106;28;20030;-65
2022/08/30 03:15:07;;;;;;;10.88;6.55;;;;;;;-146.58;100.00;69501.63;4991244;28;20038;-65
2022/08/30 03:17:32;;;;;;;6.60;6.07;;;;;;;-146.58;100.00;69501.63;4992283;28;20034;-65
2022/08/30 03:19:59;;;;;;;7.07;6.40;;;;;;;-146.58;100.00;69501.63;4991283;28;20395;-64
2022/08/30 03:22:24;;;;;;;13.07;8.52;;;;;;;-146.58;100.00;69501.63;4992630;28;20085;-69
2022/08/30 03:24:50;;;;;;;7.10;6.15;;;;;;;-146.58;100.00;69501.63;4990431;28;20038;-70
2022/08/30 03:27:15;;;;;;;8.23;6.10;;;;;;;-146.58;100.00;69501.63;4991794;28;20531;-60
2022/08/30 03:29:40;;;;;;;8.05;6.88;;;;;;;-146.58;100.00;69501.63;4990675;28;20418;-69
2022/08/30 03:32:06;;;;;;;7.90;6.65;;;;;;;-146.58;100.00;69501.63;4991429;28;20035;-70
2022/08/30 03:34:31;;;;;;;6.90;5.88;;;;;;;-146.58;100.00;69501.63;4990799;28;20035;-69
2022/08/30 03:37:00;;;;;;;7.07;6.28;;;;;;;-146.58;100.00;69501.63;4991716;28;20671;-69
2022/08/30 03:39:25;;;;;;;9.85;7.50;;;;;;;-146.58;100.00;69501.63;4990619;28;20042;-63
2022/08/30 03:41:51;;;;;;;10.30;7.10;;;;;;;14.04;100.00;69501.63;4991941;28;20387;-63
2022/08/30 03:44:16;;;;;;;6.97;6.28;;;;;;;-146.58;100.00;69501.63;4990801;28;20382;-63
2022/08/30 03:46:41;;;;;;;7.45;6.57;;;;;;;-146.58;100.00;69501.63;4991753;28;20229;-63
2022/08/30 03:49:07;;;;;;;8.35;7.55;;;;;;;-146.58;100.00;69501.63;4990708;28;20042;-63
2022/08/30 03:51:32;;;;;;;6.53;6.00;;;;;;;-146.58;100.00;69501.63;4991797;28;20031;-63
2022/08/30 03:53:58;;;;;;;11.05;7.18;;;;;;;-146.58;100.00;69501.63;4990359;28;20030;-63
2022/08/30 03:56:24;;;;;;;6.60;5.15;;;;;;;-146.58;100.00;69501.63;4991649;28;20034;-64
2022/08/30 03:58:50;;;;;;;7.47;6.80;;;;;;;14.04;100.00;164235.38;4989889;28;20030;-70
2022/08/30 04:01:15;;;;;;;9.20;6.45;;;;;;;13.48;100.00;164089.34;4991186;28;20026;-70
2022/08/30 04:03:41;;;;;;;8.85;7.53;;;;;;;13.47;100.00;164088.03;4991793;28;20019;-69
2022/08/30 04:06:06;;;;;;;7.60;6.38;;;;;;;13.46;100.00;164083.94;4990186;28;20109;-69
2022/08/30 04:08:31;;;;;;;6.75;6.13;;;;;;;13.45;100.00;164081.22;4991311;28;20026;-69
2022/08/30 04:10:57;;;;;;;10.95;6.43;;;;;;;13.46;100.00;164085.31;4990320;28;20489;-69
2022/08/30 04:13:23;;;;;;;7.53;6.72;;;;;;;13.45;100.00;164081.22;4992290;28;20409;-70
2022/08/30 04:15:49;;;;;;;7.03;6.32;;;;;;;13.43;100.00;164077.19;4989848;28;20413;-69
2022/08/30 04:18:15;;;;;;;7.57;6.15;;;;;;;13.41;100.00;164071.75;4992051;28;20023;-70
2022/08/30 04:20:41;;;;;;;5.75;5.25;;;;;;;13.40;100.00;164067.72;4990306;28;20473;-70
2022/08/30 04:23:06;;;;;;;7.68;6.93;;;;;;;13.38;100.00;164062.25;4991685;28;20026;-70
2022/08/30 04:25:34;;;;;;;7.95;5.38;;;;;;;13.36;100.00;164056.88;4989939;28;20069;-69
2022/08/30 04:28:00;;;;;;;5.45;4.90;;;;;;;13.36;100.00;164056.88;4992028;28;20023;-70
2022/08/30 04:30:26;;;;;;;8.18;5.90;;;;;;;13.35;100.00;164055.50;4989894;28;20461;-69
2022/08/30 04:32:51;;;;;;;7.32;5.88;;;;;;;13.35;100.00;164054.16;4991505;28;20084;-69
2022/08/30 04:35:16;;;;;;;8.23;5.65;;;;;;;13.33;100.00;164050.06;4990366;28;20038;-70
2022/08/30 04:37:42;;;;;;;7.57;6.13;;;;;;;13.31;100.00;164046.03;4990844;28;20030;-70
2022/08/30 04:40:08;;;;;;;7.43;5.97;;;;;;;13.29;100.00;164040.59;4990226;28;20158;-70
2022/08/30 04:42:34;;;;;;;7.43;5.63;;;;;;;13.31;100.00;164046.03;4991413;28;20029;-66
2022/08/30 04:45:08;;;;;;;6.95;6.25;;;;;;;13.32;100.00;164048.75;4993856;28;20092;-65
2022/08/30 04:47:34;;;;;;;6.53;5.90;;;;;;;13.32;100.00;164048.75;4995327;28;20436;-65
2022/08/30 04:50:00;;;;;;;6.05;5.28;;;;;;;13.33;100.00;164051.44;4994098;28;20042;-65
2022/08/30 04:52:25;;;;;;;5.88;4.88;;;;;;;13.35;100.00;164054.16;4995015;28;20089;-65
2022/08/30 04:54:54;;;;;;;6.30;5.40;;;;;;;13.37;100.00;164059.53;4993842;28;20030;-64
2022/08/30 04:57:20;;;;;;;8.68;5.45;;;;;;;13.37;100.00;164059.53;4995439;28;20026;-64
2022/08/30 04:59:45;;;;;;;6.20;5.60;;;;;;;13.31;100.00;164046.03;4993443;28;20670;-64
2022/08/30 05:02:11;;;;;;;6.15;4.40;;;;;;;13.37;100.00;164059.53;4995393;28;20033;-68
2022/08/30 05:04:36;;;;;;;4.85;4.45;;;;;;;13.42;100.00;164073.13;4993508;28;20641;-64
2022/08/30 05:07:01;;;;;;;5.47;4.97;;;;;;;13.47;100.00;164086.66;4994774;28;20417;-65
2022/08/30 05:09:27;;;;;;;4.93;4.53;;;;;;;13.51;100.00;164097.50;4993902;28;20034;-64
2022/08/30 05:11:52;;;;;;;9.38;4.85;;;;;;;13.50;100.00;164094.78;4995065;28;20038;-65
2022/08/30 05:14:18;;;;;;;7.35;4.95;;;;;;;13.54;100.00;164105.56;4993686;28;20038;-64
2022/08/30 05:16:44;;;;;;;8.10;5.63;;;;;;;13.59;100.00;164117.75;4994956;28;20524;-65
2022/08/30 05:19:09;;;;;;;5.22;4.80;;;;;;;13.63;100.00;164129.94;4993703;28;20034;-64
2022/08/30 05:21:35;;;;;;;6.05;5.22;;;;;;;13.66;100.00;164135.34;4994183;28;20026;-64
2022/08/30 05:24:01;;;;;;;6.25;5.18;;;;;;;13.70;100.00;164147.47;4993843;28;20018;-64
2022/08/30 05:26:30;;;;;;;10.23;5.65;;;;;;;13.74;100.00;164156.94;4994585;28;20034;-64
2022/08/30 05:28:55;;;;;;;;;;;;;;;13.80;100.00;164174.53;4993597;28;20026;-64
2022/08/30 05:31:24;;;;;;;6.95;4.95;;;;;;;13.84;100.00;164184.00;4994825;28;19912;-70
2022/08/30 05:33:50;;;;;;;5.78;4.53;;;;;;;13.88;100.00;164193.47;4992871;28;20105;-68
2022/08/30 05:36:17;;;;;;;5.22;4.28;;;;;;;13.93;100.00;164207.00;4994273;28;20098;-67
2022/08/30 05:38:43;;;;;;;10.27;4.22;;;;;;;14.00;100.00;164224.59;4992912;28;20034;-66
2022/08/30 05:41:09;;;;;;;3.15;2.85;;;;;;;14.05;100.00;164238.09;4993755;28;20026;-67
2022/08/30 05:43:35;;;;;;;9.07;3.30;;;;;;;14.12;100.00;164257.03;4994201;28;20034;-69
2022/08/30 05:46:04;;;;;;;6.13;3.05;;;;;;;14.19;100.00;164275.97;4992868;28;20070;-73
2022/08/30 05:48:29;;;;;;;6.28;3.03;;;;;;;14.27;100.00;164297.63;4994005;28;20027;-60
2022/08/30 05:51:23;;;;;;;7.85;2.70;;;;;;;14.38;100.00;164326.03;4992655;28;20042;-62
2022/08/30 05:53:50;;;;;;;4.38;2.97;;;;;;;14.44;100.00;164340.94;4991866;28;20376;-62
2022/08/30 05:56:20;;;;;;;6.72;3.17;;;;;;;14.55;100.00;164369.34;4993793;28;20022;-62
2022/08/30 05:58:45;;;;;;;8.82;2.83;;;;;;;14.61;100.00;164385.56;4992446;28;20113;-61
2022/08/30 06:01:31;;;;;;;3.03;2.80;;;;;;;14.70;100.00;164408.66;4994237;28;20564;-62
2022/08/30 06:03:59;;;;;;;6.03;2.67;;;;;;;14.74;100.00;164419.47;4992963;28;20026;-61
2022/08/30 06:06:25;;;;;;;4.27;3.17;;;;;;;14.78;100.00;164428.94;4993848;28;20053;-62
2022/08/30 06:08:50;;;;;;;4.35;3.35;;;;;;;14.90;100.00;164462.78;4992746;28;20031;-61
2022/08/30 06:11:18;;;;;;;4.78;2.60;;;;;;;14.96;100.00;164476.28;4994062;28;20022;-62
2022/08/30 06:13:45;;;;;;;11.18;2.38;;;;;;;15.09;100.00;164511.47;4992371;28;20026;-61
2022/08/30 06:16:11;;;;;;;9.55;3.08;;;;;;;15.15;100.00;164527.72;4993968;28;20513;-62
2022/08/30 06:18:36;;;;;;;3.53;2.70;;;;;;;15.21;100.00;164542.59;4993636;28;20041;-62
2022/08/30 06:21:02;;;;;;;2.63;1.85;;;;;;;15.28;100.00;164560.22;4992139;28;20042;-61
2022/08/30 06:23:27;;;;;;;7.53;2.45;;;;;;;15.31;100.00;164568.31;4993651;28;20030;-62
2022/08/30 06:25:53;;;;;;;8.35;3.03;;;;;;;15.35;100.00;164579.16;4992231;28;20038;-62
2022/08/30 06:28:18;;;;;;;3.53;2.65;;;;;;;15.43;100.00;164600.84;4993437;28;20022;-62
2022/08/30 06:30:44;;;;;;;2.47;2.17;;;;;;;15.50;100.00;164619.78;4991717;28;20109;-62
2022/08/30 06:33:09;;;;;;;2.80;2.55;;;;;;;15.58;100.00;164640.06;4993790;28;20023;-62
2022/08/30 06:35:36;;;;;;;8.25;2.83;;;;;;;-146.58;100.00;69501.63;4991451;28;20046;-61
2022/08/30 06:38:01;;;;;;;2.17;1.92;;;;;;;15.58;100.00;91528.69;4993457;28;20034;-62
2022/08/30 06:40:26;;;;;;;4.50;2.28;;;;;;;-146.58;100.00;69501.63;4992209;28;20042;-62
2022/08/30 06:42:53;;;;;;;3.80;3.25;;;;;;;-146.58;100.00;69501.63;4992703;28;20140;-62
2022/08/30 06:45:19;;;;;;;4.22;1.88;;;;;;;15.58;100.00;90592.28;4989847;28;20045;-61
2022/08/30 06:47:45;;;;;;;3.08;1.77;;;;;;;15.58;100.00;164640.06;5008464;28;20025;-61
2022/08/30 06:50:12;;;;;;;2.38;2.15;;;;;;;16.25;100.00;164814.81;5007968;28;20482;-61
2022/08/30 06:52:42;;;;;;;8.98;1.77;;;;;;;16.26;100.00;164817.53;4992676;28;20116;-61
2022/08/30 06:55:09;;;;;;;3.13;2.17;;;;;;;16.33;100.00;164836.50;4991835;28;20053;-62
2022/08/30 06:57:35;;;;;;;4.82;1.90;;;;;;;16.39;100.00;164852.75;4992412;28;20022;-62
2022/08/30 07:00:01;;;;;;;3.00;2.25;;;;;;;16.50;100.00;164882.53;4991545;28;20050;-62
2022/08/30 07:02:26;;;;;;;6.95;1.92;;;;;;;16.50;100.00;164882.53;4993158;28;20010;-61
2022/08/30 07:04:52;;;;;;;4.07;2.53;;;;;;;16.74;100.00;164944.84;4990825;28;20100;-61
2022/08/30 07:07:17;;;;;;;8.73;3.00;;;;;;;16.67;100.00;164925.88;4992237;28;20022;-61
2022/08/30 07:09:43;;;;;;;5.95;2.05;;;;;;;16.74;100.00;164944.84;4991394;28;20038;-61
2022/08/30 07:12:12;;;;;;;2.92;1.88;;;;;;;16.74;100.00;164944.84;4991159;28;20022;-62
2022/08/30 07:14:38;;;;;;;2.72;1.52;;;;;;;17.01;100.00;165015.38;4998364;28;20034;-62
2022/08/30 07:18:49;;;;;;;3.00;2.25;;;;;;;17.12;100.00;165045.16;5012273;28;20030;-62
2022/08/30 07:19:50;;;;;;;12.30;2.13;;;;;;;17.36;100.00;165107.50;5010272;28;20065;-62
2022/08/30 07:22:16;;;;;;;2.17;1.83;;;;;;;17.60;100.00;165169.84;5005987;28;20034;-61
2022/08/30 07:24:42;;;;;;;3.53;2.03;;;;;;;18.29;100.00;165351.53;5003460;28;20533;-61
2022/08/30 07:27:07;;;;;;;3.35;2.03;;;;;;;19.02;100.00;165544.16;5011740;28;20499;-60
2022/08/30 07:29:33;;;;;;;4.35;1.80;;;;;;;19.41;100.00;165644.53;4996686;28;20054;-61
2022/08/30 07:31:58;;;;;;;6.10;1.83;;;;;;;19.60;100.00;165694.75;4990786;28;20030;-61
2022/08/30 07:34:23;;;;;;;4.68;1.83;;;;;;;19.61;100.00;165698.84;4992281;28;20497;-59
2022/08/30 07:36:49;;;;;;;5.93;2.15;;;;;;;19.51;100.00;165671.69;5008486;28;20038;-59
2022/08/30 07:39:14;;;;;;;6.50;3.22;;;;;;;19.29;100.00;165613.34;5012334;28;20037;-59
2022/08/30 07:41:39;;;;;;;6.22;1.80;;;;;;;19.53;100.00;165677.13;5010104;28;20049;-59
2022/08/30 07:44:08;;;;;;;9.70;1.92;;;;;;;19.33;100.00;165625.56;5012206;28;20026;-59
2022/08/30 07:46:34;;;;;;;3.75;1.60;;;;;;;19.61;100.00;165698.84;5010210;28;20045;-60
2022/08/30 07:49:00;;;;;;;9.63;2.10;;;;;;;19.95;100.00;165787.09;5011751;28;20022;-58
2022/08/30 07:51:27;;;;;;;4.55;1.70;;;;;;;20.17;100.00;165845.44;5010225;28;20037;-59
2022/08/30 07:53:53;;;;;;;2.53;1.52;;;;;;;20.41;100.00;165909.22;5011950;28;20381;-59
2022/08/30 07:56:19;;;;;;;4.63;2.25;;;;;;;20.45;100.00;165920.13;5010249;28;20064;-59
2022/08/30 07:58:45;;;;;;;7.13;1.80;;;;;;;20.77;100.00;166002.97;4993760;28;20022;-58
2022/08/30 08:01:11;;;;;;;3.15;2.00;;;;;;;20.17;100.00;165844.09;5010358;28;20436;-58
2022/08/30 08:03:41;;;;;;;16.17;2.08;;;;;;;19.99;100.00;165796.59;5011344;28;20061;-59
2022/08/30 08:06:08;;;;;;;1.75;1.30;;;;;;;19.29;100.00;165614.72;5009832;28;20042;-59
2022/08/30 08:08:35;;;;;;;4.18;1.85;;;;;;;18.97;100.00;165530.59;5011281;28;20036;-59
2022/08/30 08:11:08;;;;;;;4.72;1.92;;;;;;;18.97;100.00;165530.59;5010029;28;20045;-59
2022/08/30 08:13:33;;;;;;;2.50;2.08;;;;;;;19.02;100.00;165544.16;5010949;28;20068;-58
2022/08/30 08:15:59;;;;;;;2.88;1.77;;;;;;;19.17;100.00;165582.19;5010207;28;20066;-59
2022/08/30 08:18:24;;;;;;;3.88;1.98;;;;;;;19.41;100.00;165644.53;5011108;28;20021;-59
2022/08/30 08:20:49;;;;;;;12.65;2.15;;;;;;;19.90;100.00;165774.88;5009623;28;20045;-59
2022/08/30 08:23:15;;;;;;;4.80;2.85;;;;;;;20.02;100.00;165804.72;5011333;28;20389;-59
2022/08/30 08:25:40;;;;;;;18.17;2.35;;;;;;;19.99;100.00;165796.59;5009491;28;20034;-59
2022/08/30 08:28:06;;;;;;;10.90;2.85;;;;;;;20.21;100.00;165856.31;5011328;28;20032;-58
2022/08/30 08:30:35;;;;;;;4.43;1.60;;;;;;;20.53;100.00;165940.44;5009408;28;20064;-59
2022/08/30 08:33:00;;;;;;;2.72;1.48;;;;;;;20.79;100.00;166008.41;5011121;28;20551;-59
2022/08/30 08:35:26;;;;;;;4.55;2.17;;;;;;;20.71;100.00;165986.63;5009820;28;20038;-59
2022/08/30 08:37:52;;;;;;;7.03;2.28;;;;;;;20.45;100.00;165918.72;5010947;28;20022;-59
2022/08/30 08:40:19;;;;;;;2.38;1.35;;;;;;;20.47;100.00;165924.16;5009738;28;20030;-59
2022/08/30 08:43:07;;;;;;;11.82;2.40;;;;;;;20.09;100.00;165823.72;5010779;28;20054;-59
2022/08/30 08:45:38;;;;;;;5.95;2.00;;;;;;;19.99;100.00;165796.59;5009386;28;20061;-59
2022/08/30 08:48:08;;;;;;;6.20;2.05;;;;;;;20.00;100.00;165799.28;5011321;28;20022;-59
2022/08/30 08:50:34;;;;;;;1.70;1.40;;;;;;;20.13;100.00;165835.94;5009220;28;20528;-59
2022/08/30 08:53:34;;;;;;;36.13;4.05;;;;;;;20.49;100.00;165929.63;5010986;28;20037;-59
2022/08/30 08:56:00;;;;;;;2.80;1.20;;;;;;;20.55;100.00;165945.91;5009533;28;20412;-58
2022/08/30 08:58:47;;;;;;;4.97;1.88;;;;;;;20.34;100.00;165888.88;5010796;28;20024;-59
2022/08/30 09:01:16;;;;;;;5.07;2.08;;;;;;;20.22;100.00;165859.00;5009521;28;20053;-59
2022/08/30 09:03:44;;;;;;;3.90;1.65;;;;;;;20.15;100.00;165840.00;5010551;28;20049;-59
2022/08/30 09:06:29;;;;;;;20.23;3.13;;;;;;;20.53;100.00;165940.44;5009397;28;20038;-59
2022/08/30 09:08:54;;;;;;;3.78;1.25;;;;;;;20.64;100.00;165968.97;5010476;28;20018;-58
2022/08/30 09:11:24;;;;;;;4.88;1.92;;;;;;;20.88;100.00;166031.47;4988542;28;20072;-59
2022/08/30 09:13:50;;;;;;;8.35;1.20;;;;;;;21.00;100.00;166062.72;4981308;28;20121;-59
2022/08/30 09:16:56;;;;;;;6.57;2.60;;;;;;;21.13;100.00;166096.66;4974531;28;20074;-59
2022/08/30 09:19:37;;;;;;;3.70;1.50;;;;;;;20.87;100.00;166030.13;4971619;28;20061;-59
2022/08/30 09:22:25;;;;;;;2.42;1.70;;;;;;;20.84;100.00;166021.97;4970476;28;20534;-58
2022/08/30 09:25:13;;;;;;;2.60;1.33;;;;;;;20.64;100.00;165967.63;4970148;28;20038;-59
2022/08/30 09:27:42;;;;;;;;;;;;;;;21.18;100.00;166110.22;4984030;28;20614;-59
2022/08/30 09:30:18;;;;;;;12.80;3.13;;;;;;;21.55;100.00;166208.00;4989694;28;19922;-59
2022/08/30 09:32:56;;;;;;;15.25;2.20;;;;;;;21.93;100.00;166307.25;4991411;28;20035;-59
2022/08/30 09:35:34;;;;;;;2.45;1.35;;;;;;;22.37;100.00;166424.09;4990081;28;20034;-59
2022/08/30 09:38:09;;;;;;;3.83;1.67;;;;;;;22.30;100.00;166406.41;4994086;28;20069;-58
2022/08/30 09:40:42;;;;;;;4.72;1.52;;;;;;;22.41;100.00;166435.00;4992116;28;20121;-59
2022/08/30 09:43:17;;;;;;;135.07;10.98;;;;;;;22.59;100.00;166482.53;4992130;28;20033;-58
2022/08/30 09:46:02;;;;;;;5.25;1.10;;;;;;;22.41;100.00;166433.66;4989793;28;20038;-59
2022/08/30 09:48:43;;;;;;;2.20;1.38;;;;;;;22.05;100.00;166338.44;4992388;28;20030;-59
2022/08/30 09:51:08;;;;;;;4.38;1.50;;;;;;;22.40;100.00;166432.28;4973417;28;20097;-59
2022/08/30 09:53:42;;;;;;;3.33;1.30;;;;;;;22.63;100.00;166492.06;4985375;28;20109;-59
2022/08/30 09:56:19;;;;;;;5.55;1.30;;;;;;;22.75;100.00;166524.66;5009241;28;20046;-60
2022/08/30 09:59:01;;;;;;;1.65;1.27;;;;;;;23.04;100.00;166599.44;4997402;28;20034;-60
2022/08/30 10:01:31;;;;;;;2.30;1.23;;;;;;;23.05;100.00;166603.50;4973400;28;20086;-60
2022/08/30 10:04:22;;;;;;;2.92;1.02;;;;;;;23.23;100.00;166651.13;4991895;28;20030;-60
2022/08/30 10:06:52;;;;;;;5.47;1.10;;;;;;;23.16;100.00;166630.69;4992267;28;20053;-60
2022/08/30 10:09:35;;;;;;;9.05;2.08;;;;;;;22.75;100.00;166524.66;4993335;28;20042;-60
2022/08/30 10:12:14;;;;;;;3.15;1.50;;;;;;;22.55;100.00;166470.31;4987784;28;20097;-60
2022/08/30 10:15:03;;;;;;;8.55;1.33;;;;;;;22.15;100.00;166366.97;4990204;28;20026;-60
2022/08/30 10:17:53;;;;;;;3.33;1.75;;;;;;;22.04;100.00;166337.13;4992512;28;20076;-60
2022/08/30 10:20:48;;;;;;;2.85;1.70;;;;;;;22.40;100.00;166430.94;4991603;28;20394;-60
2022/08/30 10:23:20;;;;;;;3.58;1.52;;;;;;;22.59;100.00;166481.22;4992141;28;20062;-60
2022/08/30 10:25:50;;;;;;;1.40;1.30;;;;;;;22.55;100.00;166470.31;4990972;28;20046;-61
2022/08/30 10:28:26;;;;;;;3.38;1.65;;;;;;;22.44;100.00;166443.16;4992920;28;20106;-60
2022/08/30 10:30:58;;;;;;;5.43;1.65;;;;;;;22.31;100.00;166409.13;4990559;28;20114;-60
2022/08/30 10:33:27;;;;;;;2.63;1.80;;;;;;;22.46;100.00;166448.56;4992566;28;20454;-60
2022/08/30 10:35:56;;;;;;;2.95;1.88;;;;;;;22.33;100.00;166413.19;4990169;28;20062;-61
2022/08/30 10:38:37;;;;;;;4.45;2.33;;;;;;;22.43;100.00;166440.44;4993526;28;20054;-61
2022/08/30 10:41:24;;;;;;;6.03;1.95;;;;;;;22.70;100.00;166509.75;4991923;28;20057;-61
2022/08/30 10:44:05;;;;;;;3.97;2.25;;;;;;;23.08;100.00;166611.66;4989852;28;20049;-61
2022/08/30 10:46:48;;;;;;;5.35;1.33;;;;;;;22.73;100.00;166519.25;4988424;28;20484;-61
2022/08/30 10:49:20;;;;;;;9.50;1.58;;;;;;;22.74;100.00;166522.00;4989573;28;20129;-61
2022/08/30 10:52:01;;;;;;;5.25;1.65;;;;;;;22.60;100.00;166485.28;4991064;28;20110;-61
2022/08/30 10:54:39;;;;;;;2.63;1.50;;;;;;;22.87;100.00;166554.59;4991073;28;20038;-61
2022/08/30 10:57:05;;;;;;;4.28;1.40;;;;;;;23.00;100.00;166589.91;4992760;28;20385;-61
2022/08/30 10:59:32;;;;;;;3.92;1.23;;;;;;;23.21;100.00;166645.72;4989977;28;20034;-60
2022/08/30 11:02:25;;;;;;;7.17;2.00;;;;;;;23.11;100.00;166619.84;4992052;28;20038;-60
2022/08/30 11:05:19;;;;;;;3.70;1.58;;;;;;;22.96;100.00;166580.41;4989691;28;20459;-61
2022/08/30 11:07:59;;;;;;;6.15;1.48;;;;;;;22.82;96.13;166543.69;4989764;28;20085;-61
2022/08/30 11:10:57;;;;;;;3.85;1.45;;;;;;;22.94;98.26;166573.63;4988627;28;20074;-61
2022/08/30 11:13:26;;;;;;;2.38;1.33;;;;;;;22.92;100.00;166568.16;4990898;28;20026;-60
2022/08/30 11:16:03;;;;;;;2.13;1.52;;;;;;;23.02;96.63;166595.38;4989301;28;20038;-60
2022/08/30 11:18:31;;;;;;;2.95;1.48;;;;;;;22.88;97.36;166557.31;4990851;28;20034;-61
2022/08/30 11:21:18;;;;;;;4.13;1.77;;;;;;;23.08;96.72;166611.66;4991337;28;20057;-60
2022/08/30 11:24:21;;;;;;;3.92;1.60;;;;;;;23.31;98.81;166671.53;5008963;28;20037;-59